Time;durP1;ratioP1;P1;durP2;ratioP2;P2;SDS_P1;SDS_P2;PMS_P1;PMS_P2;Temp;Humidity;BMP_temperature;BMP_pressure;BME280_temperature;BME280_humidity;BME280_pressure;Samples;Min_cycle;Max_cycle;Signal;HPM_P1;HPM_P2
2022/03/18 00:02:12;;;;;;;54.58;19.70;;;;;;;3.53;88.14;101378.91;4988045;28;20218;-53
2022/03/18 00:04:37;;;;;;;47.17;19.30;;;;;;;3.51;88.47;101378.19;4988676;28;20065;-53
2022/03/18 00:07:03;;;;;;;49.88;19.02;;;;;;;3.54;88.28;101387.69;4987064;28;20031;-54
2022/03/18 00:09:28;;;;;;;59.47;20.45;;;;;;;3.55;88.18;101386.72;4992433;28;20026;-53
2022/03/18 00:11:54;;;;;;;48.20;19.65;;;;;;;3.58;87.85;101384.59;4994591;28;20368;-53
2022/03/18 00:14:20;;;;;;;49.92;22.13;;;;;;;3.56;88.38;101385.72;4997309;28;20093;-53
2022/03/18 00:16:45;;;;;;;52.92;20.83;;;;;;;3.52;88.38;101382.53;4990863;28;20477;-52
2022/03/18 00:19:11;;;;;;;57.97;20.67;;;;;;;3.52;88.34;101390.50;4988481;28;20539;-52
2022/03/18 00:21:36;;;;;;;54.70;20.80;;;;;;;3.44;88.96;101393.00;4987848;28;20392;-51
2022/03/18 00:24:03;;;;;;;58.20;20.80;;;;;;;3.38;89.20;101393.59;4987390;28;20516;-53
2022/03/18 00:26:29;;;;;;;46.80;21.08;;;;;;;3.42;89.18;101392.31;4988008;28;20045;-51
2022/03/18 00:28:54;;;;;;;51.00;21.02;;;;;;;3.40;89.17;101384.53;4987977;28;20372;-53
2022/03/18 00:31:20;;;;;;;44.97;19.00;;;;;;;3.37;89.32;101389.25;4987687;28;20385;-53
2022/03/18 00:33:45;;;;;;;54.33;20.90;;;;;;;3.36;89.25;101387.59;4988586;28;20035;-52
2022/03/18 00:36:10;;;;;;;54.33;19.70;;;;;;;3.40;89.20;101383.69;4987429;28;20026;-54
2022/03/18 00:38:36;;;;;;;52.05;20.52;;;;;;;3.40;89.04;101391.66;4987428;28;20019;-54
2022/03/18 00:41:01;;;;;;;48.88;19.60;;;;;;;3.37;89.17;101391.91;4987616;28;20396;-54
2022/03/18 00:43:27;;;;;;;46.55;20.65;;;;;;;3.33;89.41;101390.53;4987184;28;20472;-53
2022/03/18 00:45:52;;;;;;;49.65;19.35;;;;;;;3.26;89.52;101394.72;4987687;28;20485;-53
2022/03/18 00:53:46;;;;;;;47.85;19.77;;;;;;;3.13;90.67;101389.72;4995007;28;20030;-53
2022/03/18 00:56:11;;;;;;;54.08;21.77;;;;;;;3.10;90.72;101395.31;4987070;28;20384;-54
2022/03/18 00:58:37;;;;;;;57.13;23.17;;;;;;;3.07;91.20;101398.22;4988444;28;20041;-54
2022/03/18 01:01:02;;;;;;;66.05;23.85;;;;;;;3.08;91.07;101387.50;4985537;28;20038;-54
2022/03/18 01:03:28;;;;;;;52.70;22.55;;;;;;;3.05;91.50;101393.09;4995847;28;20191;-53
2022/03/18 01:05:53;;;;;;;48.20;21.63;;;;;;;3.07;91.05;101399.09;4987293;28;20067;-53
2022/03/18 01:08:19;;;;;;;49.90;22.23;;;;;;;3.05;91.29;101408.16;4987485;28;20042;-54
2022/03/18 01:10:44;;;;;;;64.18;23.58;;;;;;;2.99;91.13;101405.06;5002500;28;20030;-53
2022/03/18 01:13:10;;;;;;;52.55;23.17;;;;;;;2.96;91.45;101393.91;4990107;28;20096;-51
2022/03/18 01:15:35;;;;;;;61.13;24.30;;;;;;;2.88;91.99;101401.72;4999142;28;20062;-50
2022/03/18 01:18:01;;;;;;;65.88;24.92;;;;;;;2.86;92.06;101401.03;4992046;28;20121;-53
2022/03/18 01:20:27;;;;;;;61.08;22.52;;;;;;;2.80;92.29;101400.59;4987236;28;20065;-53
2022/03/18 01:22:52;;;;;;;68.78;23.98;;;;;;;2.76;92.63;101404.50;4988101;28;20030;-53
2022/03/18 01:25:18;;;;;;;61.35;23.48;;;;;;;2.79;92.94;101409.50;4989832;28;20030;-55
2022/03/18 01:27:43;;;;;;;54.92;22.73;;;;;;;2.78;92.74;101407.84;4990770;28;20037;-52
2022/03/18 01:30:09;;;;;;;65.40;24.67;;;;;;;2.76;92.96;101412.44;4992120;28;20461;-53
2022/03/18 01:32:34;;;;;;;66.63;24.00;;;;;;;2.75;93.24;101405.47;4989395;28;20034;-53
2022/03/18 01:35:00;;;;;;;57.15;24.75;;;;;;;2.74;92.98;101406.44;4991898;28;20046;-51
2022/03/18 01:37:26;;;;;;;60.05;23.77;;;;;;;2.72;93.03;101408.41;4990801;28;20030;-52
2022/03/18 01:39:51;;;;;;;55.70;25.40;;;;;;;2.75;93.18;101408.13;4991236;28;20045;-51
2022/03/18 01:42:17;;;;;;;57.25;24.48;;;;;;;2.75;92.83;101408.13;4989625;28;20496;-52
2022/03/18 01:44:43;;;;;;;60.80;25.73;;;;;;;2.75;92.83;101408.13;4996957;28;20040;-54
2022/03/18 01:47:09;;;;;;;58.17;23.75;;;;;;;2.74;92.68;101408.25;4990005;28;20037;-54
2022/03/18 01:49:35;;;;;;;59.83;24.83;;;;;;;2.76;92.29;101409.78;4991569;28;20041;-53
2022/03/18 01:52:00;;;;;;;62.42;24.08;;;;;;;2.79;92.70;101413.97;4990746;28;20369;-53
2022/03/18 01:54:44;;;;;;;66.70;24.45;;;;;;;2.75;92.40;101408.13;4988547;28;20034;-54
2022/03/18 01:57:09;;;;;;;61.65;26.08;;;;;;;2.71;92.77;101406.72;4997708;28;20069;-53
2022/03/18 01:59:35;;;;;;;65.60;25.38;;;;;;;2.70;92.87;101422.75;4990711;28;20106;-51
2022/03/18 02:02:00;;;;;;;54.35;25.80;;;;;;;2.67;93.34;101415.94;4988106;28;20072;-53
2022/03/18 02:04:25;;;;;;;58.10;24.95;;;;;;;2.75;93.18;101415.25;4991117;28;20042;-52
2022/03/18 02:06:51;;;;;;;65.18;24.83;;;;;;;2.75;92.80;101413.44;4996648;28;20034;-52
2022/03/18 02:09:17;;;;;;;58.80;25.20;;;;;;;2.78;93.08;101420.25;4994234;28;20632;-51
2022/03/18 02:11:43;;;;;;;63.42;24.55;;;;;;;2.76;92.65;101420.38;4989267;28;20056;-50
2022/03/18 02:14:08;;;;;;;63.55;25.92;;;;;;;2.70;93.02;101428.06;4993281;28;20493;-52
2022/03/18 02:16:34;;;;;;;51.67;22.95;;;;;;;2.67;93.45;101415.94;4989755;28;20057;-51
2022/03/18 02:18:59;;;;;;;60.58;24.10;;;;;;;2.64;93.35;101423.31;5001211;28;20034;-51
2022/03/18 02:21:28;;;;;;;60.78;26.25;;;;;;;2.60;93.38;101420.09;4989712;28;20472;-52
2022/03/18 02:23:53;;;;;;;62.75;25.83;;;;;;;2.53;93.96;101429.56;4990677;28;20037;-53
2022/03/18 02:26:19;;;;;;;57.60;24.45;;;;;;;2.52;93.88;101434.03;4998455;28;20060;-52
2022/03/18 02:28:44;;;;;;;57.88;25.58;;;;;;;2.51;94.21;101432.31;4990792;28;20030;-51
2022/03/18 02:31:09;;;;;;;65.22;25.90;;;;;;;2.48;93.76;101431.78;4988799;28;20023;-51
2022/03/18 02:33:35;;;;;;;60.75;26.05;;;;;;;2.46;94.05;101433.72;4990188;28;20034;-50
2022/03/18 02:36:00;;;;;;;64.55;25.38;;;;;;;2.41;94.37;101428.00;4989500;28;20049;-50
2022/03/18 02:38:25;;;;;;;58.70;25.10;;;;;;;2.45;95.29;101432.88;4990435;28;20026;-53
2022/03/18 02:40:51;;;;;;;67.38;26.92;;;;;;;2.38;94.66;101442.34;4990531;28;20440;-53
2022/03/18 02:43:16;;;;;;;61.47;24.52;;;;;;;2.31;94.49;101425.31;4989123;28;20400;-52
2022/03/18 02:45:42;;;;;;;59.92;24.15;;;;;;;2.32;94.45;101442.84;4990789;28;20385;-53
2022/03/18 02:48:07;;;;;;;55.55;23.73;;;;;;;2.32;94.18;101433.13;4993156;28;20105;-52
2022/03/18 02:50:33;;;;;;;55.80;26.02;;;;;;;2.28;94.48;101434.38;4989698;28;20026;-51
2022/03/18 02:52:59;;;;;;;63.10;22.85;;;;;;;2.33;94.04;101445.38;4990556;28;20026;-53
2022/03/18 02:55:24;;;;;;;59.55;22.70;;;;;;;2.31;93.93;101442.03;4989870;28;20034;-53
2022/03/18 02:57:50;;;;;;;61.22;23.38;;;;;;;2.26;93.86;101440.75;4996000;28;20435;-50
2022/03/18 03:00:17;;;;;;;54.10;24.60;;;;;;;2.23;94.31;101435.75;4996465;28;20468;-52
2022/03/18 03:02:42;;;;;;;58.45;23.73;;;;;;;2.20;95.02;101436.84;4988670;28;20034;-52
2022/03/18 03:08:01;;;;;;;68.78;27.02;;;;;;;2.19;95.05;101452.84;4989756;28;20057;-50
2022/03/18 03:10:31;;;;;;;62.10;26.55;;;;;;;2.11;95.32;101450.88;4989299;28;20053;-52
2022/03/18 03:13:01;;;;;;;57.33;26.98;;;;;;;2.02;95.59;101451.66;4993399;28;20483;-52
2022/03/18 03:15:26;;;;;;;60.13;26.52;;;;;;;2.00;96.13;101458.88;4989332;28;20041;-53
2022/03/18 03:17:52;;;;;;;64.07;26.30;;;;;;;2.03;95.62;101464.75;4988889;28;20042;-50
2022/03/18 03:20:17;;;;;;;68.90;26.45;;;;;;;2.05;95.40;101462.00;4989322;28;20050;-52
2022/03/18 03:22:43;;;;;;;55.47;25.52;;;;;;;2.03;96.35;101464.75;4988707;28;20404;-51
2022/03/18 03:25:08;;;;;;;59.70;26.35;;;;;;;1.99;96.12;101467.78;4987615;28;20473;-51
2022/03/18 03:27:33;;;;;;;48.90;23.42;;;;;;;1.84;96.45;101470.78;4988635;28;20041;-50
2022/03/18 03:30:08;;;;;;;66.55;26.75;;;;;;;1.89;96.90;101479.16;4997657;28;20038;-51
2022/03/18 03:32:33;;;;;;;53.70;26.63;;;;;;;1.86;96.52;101484.72;4989396;28;20035;-52
2022/03/18 03:34:59;;;;;;;61.10;25.52;;;;;;;1.86;96.86;101490.00;4989421;28;20050;-50
2022/03/18 03:37:26;;;;;;;59.92;24.80;;;;;;;1.80;96.80;101489.69;4988262;28;20129;-50
2022/03/18 03:39:52;;;;;;;62.80;25.20;;;;;;;1.76;97.37;101489.09;4992202;28;20465;-51
2022/03/18 03:42:18;;;;;;;53.83;25.60;;;;;;;1.83;98.07;101497.38;5002668;28;20294;-53
2022/03/18 03:44:43;;;;;;;66.93;25.15;;;;;;;1.72;97.70;101503.53;5000877;28;20101;-52
2022/03/18 03:47:09;;;;;;;57.30;26.48;;;;;;;1.70;97.37;101505.50;4987627;28;20472;-54
2022/03/18 03:49:34;;;;;;;51.72;23.58;;;;;;;1.79;97.44;101503.88;4989208;28;20042;-54
2022/03/18 03:51:59;;;;;;;56.75;24.13;;;;;;;1.71;97.02;101499.25;4988515;28;20504;-54
2022/03/18 03:54:27;;;;;;;65.90;27.17;;;;;;;1.72;97.91;101507.06;4989537;28;20038;-51
2022/03/18 03:56:53;;;;;;;52.72;23.77;;;;;;;1.64;97.57;101514.75;4988822;28;20045;-53
2022/03/18 03:59:19;;;;;;;71.90;26.02;;;;;;;1.69;98.61;101517.88;4988917;28;20330;-53
2022/03/18 04:01:44;;;;;;;53.58;24.70;;;;;;;1.64;97.62;101521.88;4986606;28;20408;-53
2022/03/18 04:04:10;;;;;;;61.08;23.88;;;;;;;1.60;97.82;101525.72;4989179;28;20092;-54
2022/03/18 04:06:36;;;;;;;60.45;23.55;;;;;;;1.66;98.01;101519.94;4991077;28;20029;-54
2022/03/18 04:09:01;;;;;;;68.45;24.65;;;;;;;1.67;97.12;101524.25;4988814;28;20034;-53
2022/03/18 04:11:26;;;;;;;54.50;22.33;;;;;;;1.64;97.18;101521.88;4990436;28;20526;-53
2022/03/18 04:13:52;;;;;;;51.47;22.67;;;;;;;1.61;97.29;101520.31;4990343;28;20038;-51
2022/03/18 04:16:17;;;;;;;58.28;25.73;;;;;;;1.64;97.28;101527.16;4987427;28;20026;-54
2022/03/18 04:18:43;;;;;;;52.75;23.30;;;;;;;1.66;96.92;101522.59;4988609;28;20027;-53
2022/03/18 04:21:08;;;;;;;61.35;25.27;;;;;;;1.61;97.04;101527.41;4988559;28;20057;-54
2022/03/18 04:23:34;;;;;;;54.50;23.33;;;;;;;1.66;97.13;101527.88;4997783;28;20042;-53
2022/03/18 04:25:59;;;;;;;75.38;24.77;;;;;;;1.63;97.09;101531.59;4988285;28;20046;-51
2022/03/18 04:28:25;;;;;;;61.22;25.67;;;;;;;1.77;96.85;101534.88;4988613;28;20046;-52
2022/03/18 04:30:50;;;;;;;55.78;23.38;;;;;;;1.78;96.82;101534.78;4988272;28;20381;-52
2022/03/18 04:33:16;;;;;;;64.65;24.95;;;;;;;1.80;96.01;101543.44;4986138;28;20046;-53
2022/03/18 04:35:41;;;;;;;62.03;25.40;;;;;;;1.78;96.27;101550.63;4987453;28;20053;-53
2022/03/18 04:38:06;;;;;;;54.58;25.13;;;;;;;1.73;96.39;101558.94;4988176;28;20042;-53
2022/03/18 04:40:32;;;;;;;57.85;26.20;;;;;;;1.83;96.27;101556.38;4985888;28;20448;-51
2022/03/18 04:42:58;;;;;;;52.63;24.73;;;;;;;1.78;95.90;101561.22;5002778;28;20034;-54
2022/03/18 04:45:23;;;;;;;56.22;23.77;;;;;;;1.76;95.75;101565.78;4987923;28;20034;-52
2022/03/18 04:47:49;;;;;;;59.88;24.00;;;;;;;1.72;96.13;101561.72;4987875;28;20035;-52
2022/03/18 04:50:17;;;;;;;54.72;23.98;;;;;;;1.71;95.93;101560.88;4988098;28;20038;-51
2022/03/18 04:52:43;;;;;;;62.63;23.23;;;;;;;1.72;95.85;101567.88;4986257;28;20080;-53
2022/03/18 04:55:09;;;;;;;52.13;22.10;;;;;;;1.71;95.77;101570.63;4992770;28;20026;-50
2022/03/18 04:57:35;;;;;;;53.88;22.92;;;;;;;1.72;95.93;101567.88;4991309;28;20029;-53
2022/03/18 05:00:00;;;;;;;59.53;23.67;;;;;;;1.60;95.78;101573.31;4989658;28;20046;-53
2022/03/18 05:02:26;;;;;;;57.80;22.13;;;;;;;1.55;96.04;101586.06;4992148;28;21382;-54
2022/03/18 05:04:53;;;;;;;48.05;21.75;;;;;;;1.46;96.72;101587.66;5009359;28;20096;-53
2022/03/18 05:07:19;;;;;;;55.03;22.77;;;;;;;1.43;97.33;101585.28;4999368;28;20026;-51
2022/03/18 05:09:45;;;;;;;65.30;22.23;;;;;;;1.50;97.43;101587.28;4993918;28;20150;-52
2022/03/18 05:12:12;;;;;;;58.78;22.83;;;;;;;1.43;97.29;101583.47;4990674;28;20030;-51
2022/03/18 05:14:38;;;;;;;52.45;22.08;;;;;;;1.42;96.82;101586.22;4994597;28;20124;-53
2022/03/18 05:17:04;;;;;;;54.70;22.33;;;;;;;1.51;97.11;101590.78;4989931;28;20034;-53
2022/03/18 05:19:30;;;;;;;47.22;22.80;;;;;;;1.47;96.91;101589.34;4993245;28;20089;-50
2022/03/18 05:21:58;;;;;;;63.88;23.25;;;;;;;1.48;96.52;101598.97;4994270;28;20517;-54
2022/03/18 05:24:26;;;;;;;51.90;23.92;;;;;;;1.41;97.05;101601.25;5007264;28;20043;-52
2022/03/18 05:26:52;;;;;;;53.55;22.45;;;;;;;1.44;96.74;101603.63;4990807;28;20030;-53
2022/03/18 05:29:18;;;;;;;52.20;24.95;;;;;;;1.31;97.29;101605.59;4991062;28;20437;-54
2022/03/18 05:31:43;;;;;;;50.08;23.75;;;;;;;1.23;97.66;101605.41;4989948;28;20169;-51
2022/03/18 05:34:09;;;;;;;53.20;22.70;;;;;;;1.21;98.39;101610.78;4991147;28;20034;-53
2022/03/18 05:36:34;;;;;;;57.13;23.42;;;;;;;1.18;98.26;101613.69;4994115;28;20660;-52
2022/03/18 05:39:00;;;;;;;60.25;23.40;;;;;;;1.14;98.52;101616.69;5002260;28;20440;-53
2022/03/18 05:41:25;;;;;;;57.70;22.55;;;;;;;1.14;98.68;101621.97;4992913;28;20038;-54
2022/03/18 05:43:51;;;;;;;61.85;24.98;;;;;;;1.05;98.72;101626.19;4991827;28;20034;-54
2022/03/18 05:46:16;;;;;;;60.95;25.13;;;;;;;1.00;98.93;101628.34;4990316;28;20077;-51
2022/03/18 05:48:42;;;;;;;56.55;22.80;;;;;;;1.05;99.09;101639.41;4990605;28;20030;-52
2022/03/18 05:51:08;;;;;;;52.20;24.23;;;;;;;1.11;99.14;101632.78;4990213;28;20034;-52
2022/03/18 05:53:33;;;;;;;59.85;24.38;;;;;;;1.11;98.39;101636.25;4990790;28;20097;-53
2022/03/18 05:58:43;;;;;;;55.97;23.35;;;;;;;1.13;98.33;101641.44;4991201;28;20041;-52
2022/03/18 06:01:10;;;;;;;62.85;25.55;;;;;;;1.12;98.54;101639.75;4999834;28;20030;-54
2022/03/18 06:03:36;;;;;;;49.95;23.20;;;;;;;1.14;98.48;101645.75;4990854;28;20492;-54
2022/03/18 06:06:03;;;;;;;56.38;23.42;;;;;;;1.26;97.90;101650.06;4989865;28;20038;-55
2022/03/18 06:13:59;;;;;;;53.45;21.58;;;;;;;1.48;95.79;101641.25;4999899;28;20041;-52
2022/03/18 06:16:25;;;;;;;48.03;20.60;;;;;;;1.51;95.86;101641.81;4989913;28;20026;-54
2022/03/18 06:18:50;;;;;;;64.10;19.58;;;;;;;1.59;95.36;101648.28;4998700;28;20037;-53
2022/03/18 06:21:16;;;;;;;47.42;20.40;;;;;;;1.63;95.26;101650.56;4995710;28;20382;-54
2022/03/18 06:23:41;;;;;;;58.25;19.42;;;;;;;1.67;94.98;101645.84;4995934;28;20057;-53
2022/03/18 06:26:06;;;;;;;50.70;21.80;;;;;;;1.64;94.95;101643.47;4989397;28;20038;-56
2022/03/18 06:28:32;;;;;;;50.72;20.17;;;;;;;1.77;95.59;101649.44;4990460;28;20038;-55
2022/03/18 06:30:58;;;;;;;47.58;22.27;;;;;;;1.87;94.27;101655.66;4989010;28;20053;-55
2022/03/18 06:33:23;;;;;;;50.22;21.77;;;;;;;1.87;93.31;101666.25;4998413;28;20037;-52
2022/03/18 06:35:49;;;;;;;43.88;19.85;;;;;;;2.11;94.67;101667.81;4989015;28;20117;-53
2022/03/18 06:38:14;;;;;;;47.70;20.50;;;;;;;2.03;93.40;101675.56;4990606;28;20030;-51
2022/03/18 06:40:40;;;;;;;50.22;20.85;;;;;;;1.97;92.63;101681.34;4990104;28;20026;-52
2022/03/18 06:43:06;;;;;;;49.72;22.05;;;;;;;2.09;92.91;101685.63;4990130;28;20034;-54
2022/03/18 06:45:31;;;;;;;54.65;22.48;;;;;;;1.96;91.77;101703.47;4988716;28;20039;-54
2022/03/18 06:47:56;;;;;;;53.85;22.25;;;;;;;1.98;91.33;101702.38;4992737;28;20042;-52
2022/03/18 06:50:24;;;;;;;45.22;22.20;;;;;;;2.11;92.05;101699.56;4992184;28;20408;-54
2022/03/18 06:52:50;;;;;;;52.17;22.05;;;;;;;2.36;90.27;101693.91;4990404;28;20026;-51
2022/03/18 06:55:15;;;;;;;41.85;20.40;;;;;;;2.45;89.76;101699.41;5002375;28;20463;-54
2022/03/18 06:57:42;;;;;;;43.13;19.02;;;;;;;2.43;90.19;101704.00;4988313;28;20034;-55
2022/03/18 07:00:08;;;;;;;48.35;21.88;;;;;;;2.62;88.77;101706.75;4989912;28;20388;-53
2022/03/18 07:02:34;;;;;;;50.30;21.25;;;;;;;2.57;89.10;101711.59;4988552;28;20834;-55
2022/03/18 07:04:59;;;;;;;46.25;22.58;;;;;;;2.06;89.99;101717.63;4987581;28;20042;-53
2022/03/18 07:07:24;;;;;;;53.03;24.10;;;;;;;1.82;92.18;101713.38;4994289;28;20038;-53
2022/03/18 07:09:50;;;;;;;51.17;23.63;;;;;;;2.27;91.41;101715.84;4989872;28;20038;-54
2022/03/18 07:12:16;;;;;;;60.30;22.73;;;;;;;2.78;88.36;101715.06;4990439;28;20484;-53
2022/03/18 07:14:41;;;;;;;47.70;19.02;;;;;;;2.83;87.18;101727.09;4995493;28;20455;-52
2022/03/18 07:19:52;;;;;;;41.75;19.75;;;;;;;2.98;85.68;101731.06;4991631;28;20115;-54
2022/03/18 07:22:19;;;;;;;60.78;26.42;;;;;;;3.33;84.66;101735.13;4989499;28;20022;-54
2022/03/18 07:24:44;;;;;;;54.45;26.45;;;;;;;3.17;85.13;101739.13;4993031;28;20508;-51
2022/03/18 07:27:09;;;;;;;54.10;26.45;;;;;;;3.17;83.86;101744.44;4987501;28;20023;-53
2022/03/18 07:29:35;;;;;;;55.63;24.85;;;;;;;3.42;84.28;101750.22;4989259;28;20072;-52
2022/03/18 07:32:01;;;;;;;54.10;24.00;;;;;;;4.01;82.14;101756.53;4988296;28;20476;-56
2022/03/18 07:34:26;;;;;;;52.50;22.95;;;;;;;4.09;81.36;101743.38;4991925;28;20046;-53
2022/03/18 07:36:52;;;;;;;53.92;21.13;;;;;;;4.67;79.33;101750.53;4994340;28;20030;-56
2022/03/18 07:39:17;;;;;;;39.97;15.85;;;;;;;4.86;76.37;101739.84;4991308;28;20029;-53
2022/03/18 07:41:43;;;;;;;38.17;17.05;;;;;;;5.82;73.82;101745.72;4987870;28;20034;-51
2022/03/18 07:44:08;;;;;;;43.97;17.13;;;;;;;5.15;74.03;101752.22;4991464;28;20046;-53
2022/03/18 07:46:34;;;;;;;32.67;15.27;;;;;;;5.28;73.96;101742.06;4984471;28;20026;-52
2022/03/18 07:49:00;;;;;;;39.38;16.10;;;;;;;5.43;73.47;101738.94;4993346;28;20688;-52
2022/03/18 07:51:25;;;;;;;40.05;15.63;;;;;;;5.30;73.29;101745.44;4991120;28;20026;-54
2022/03/18 07:53:51;;;;;;;39.53;17.23;;;;;;;6.17;70.75;101746.78;4987146;28;20030;-52
2022/03/18 07:56:17;;;;;;;44.50;17.27;;;;;;;6.58;69.79;101749.78;4986864;28;20026;-52
2022/03/18 07:58:42;;;;;;;40.85;16.67;;;;;;;7.06;67.29;101745.81;4989301;28;20483;-53
2022/03/18 08:01:10;;;;;;;33.72;16.42;;;;;;;8.20;65.22;101748.00;4986397;28;20030;-53
2022/03/18 08:03:35;;;;;;;43.13;18.88;;;;;;;8.20;63.74;101752.53;4971435;28;20042;-55
2022/03/18 08:06:01;;;;;;;47.03;19.70;;;;;;;8.85;64.24;101754.38;4988871;28;20037;-52
2022/03/18 08:08:26;;;;;;;45.45;20.25;;;;;;;9.31;61.33;101753.75;4998509;28;20396;-54
2022/03/18 08:10:51;;;;;;;33.17;14.50;;;;;;;9.28;57.81;101750.47;5001502;28;20052;-54
2022/03/18 08:13:17;;;;;;;41.45;15.68;;;;;;;10.07;57.92;101746.88;4995544;28;20332;-55
2022/03/18 08:15:44;;;;;;;42.38;16.65;;;;;;;9.51;58.34;101757.72;4998463;28;20096;-55
2022/03/18 08:18:10;;;;;;;32.97;14.65;;;;;;;9.97;58.37;101754.31;5001193;28;20513;-54
2022/03/18 08:20:40;;;;;;;31.60;14.15;;;;;;;10.75;56.34;101753.22;4990890;28;20042;-55
2022/03/18 08:23:08;;;;;;;31.48;12.75;;;;;;;10.13;56.84;101762.22;4988355;28;20563;-54
2022/03/18 08:25:34;;;;;;;27.00;12.45;;;;;;;9.84;56.17;101760.25;4992750;28;20061;-52
2022/03/18 08:27:59;;;;;;;41.03;13.13;;;;;;;9.72;55.94;101757.94;4987097;28;20112;-53
2022/03/18 08:30:25;;;;;;;32.22;12.30;;;;;;;9.68;57.57;101758.47;4990698;28;20034;-55
2022/03/18 08:32:50;;;;;;;26.08;11.05;;;;;;;10.33;54.36;101768.00;4985717;28;20030;-54
2022/03/18 08:35:16;;;;;;;27.75;11.77;;;;;;;9.86;57.59;101767.09;4987206;28;20037;-55
2022/03/18 08:37:57;;;;;;;28.30;11.20;;;;;;;10.46;55.24;101776.28;4992370;28;20034;-54
2022/03/18 08:40:29;;;;;;;23.13;10.20;;;;;;;11.19;54.10;101765.88;4989179;28;20037;-54
2022/03/18 08:42:55;;;;;;;22.55;8.77;;;;;;;9.81;53.83;101765.94;4992435;28;20078;-55
2022/03/18 08:45:21;;;;;;;23.70;9.65;;;;;;;10.18;54.66;101767.06;4992273;28;20061;-54
2022/03/18 08:47:46;;;;;;;17.25;7.68;;;;;;;10.43;51.75;101765.91;5000361;28;20485;-54
2022/03/18 08:50:12;;;;;;;20.75;9.35;;;;;;;10.46;51.15;101767.38;4991506;28;20038;-54
2022/03/18 08:52:37;;;;;;;17.92;7.90;;;;;;;9.14;52.94;101764.53;4993088;28;20144;-55
2022/03/18 08:55:04;;;;;;;25.88;7.90;;;;;;;9.54;52.33;101770.75;4986759;28;20038;-55
2022/03/18 08:57:31;;;;;;;17.80;6.97;;;;;;;8.96;51.43;101778.13;4994061;28;20526;-52
2022/03/18 08:59:56;;;;;;;16.75;8.00;;;;;;;8.89;53.25;101773.63;4992137;28;20038;-55
2022/03/18 09:02:22;;;;;;;21.13;8.15;;;;;;;9.50;51.29;101774.78;4986075;28;20462;-54
2022/03/18 09:04:48;;;;;;;23.70;8.80;;;;;;;8.15;56.14;101768.22;4987122;28;20097;-53
2022/03/18 09:07:14;;;;;;;16.55;8.18;;;;;;;8.98;54.05;101770.72;4996477;28;20033;-54
2022/03/18 09:09:39;;;;;;;16.02;7.07;;;;;;;8.70;52.97;101778.28;4984218;28;20025;-54
2022/03/18 09:12:05;;;;;;;18.75;6.95;;;;;;;8.36;53.87;101771.25;4995036;28;20489;-54
2022/03/18 09:14:31;;;;;;;16.63;6.43;;;;;;;9.53;52.40;101771.75;4990243;28;20065;-54
2022/03/18 09:16:56;;;;;;;20.48;6.90;;;;;;;9.54;51.62;101762.72;5003646;28;20030;-54
2022/03/18 09:19:23;;;;;;;21.33;7.47;;;;;;;10.85;47.98;101774.44;4993172;28;20382;-54
2022/03/18 09:21:49;;;;;;;17.13;6.18;;;;;;;11.01;48.25;101767.06;5000717;28;20034;-55
2022/03/18 09:24:14;;;;;;;16.33;6.00;;;;;;;10.06;47.32;101772.00;4990971;28;20118;-52
2022/03/18 09:26:40;;;;;;;11.10;6.05;;;;;;;9.56;49.56;101778.59;4989173;28;20579;-51
2022/03/18 09:29:06;;;;;;;21.50;6.85;;;;;;;10.48;46.78;101778.78;4995840;28;20037;-55
2022/03/18 09:31:31;;;;;;;17.40;6.40;;;;;;;10.29;48.00;101774.75;4985809;28;20031;-54
2022/03/18 09:33:57;;;;;;;16.17;6.50;;;;;;;10.75;46.50;101774.69;5002633;28;20032;-52
2022/03/18 09:36:23;;;;;;;16.25;5.80;;;;;;;10.58;47.71;101772.16;4986627;28;20117;-52
2022/03/18 09:38:50;;;;;;;15.07;5.30;;;;;;;11.16;47.40;101766.25;4985616;28;20037;-55
2022/03/18 09:41:16;;;;;;;20.23;6.82;;;;;;;10.54;46.83;101770.03;4986047;28;20416;-53
2022/03/18 09:43:42;;;;;;;19.67;6.70;;;;;;;11.26;45.35;101771.31;4992261;28;20035;-55
2022/03/18 09:46:09;;;;;;;18.27;5.80;;;;;;;11.10;46.08;101777.72;4988493;28;20038;-53
2022/03/18 09:48:34;;;;;;;19.02;5.40;;;;;;;11.48;44.16;101769.56;4991088;28;20524;-52
2022/03/18 09:51:00;;;;;;;18.25;5.13;;;;;;;11.54;42.10;101769.66;4977236;28;20049;-54
2022/03/18 09:53:25;;;;;;;13.48;5.35;;;;;;;12.53;43.61;101777.19;4962334;28;20029;-54
2022/03/18 09:55:53;;;;;;;19.38;6.57;;;;;;;11.20;44.74;101778.28;4959446;28;20039;-53
2022/03/18 09:58:22;;;;;;;13.40;4.70;;;;;;;11.16;42.39;101772.47;4944806;29;20034;-54
2022/03/18 10:00:50;;;;;;;11.95;5.15;;;;;;;10.54;43.45;101784.25;4929795;28;20047;-54
2022/03/18 10:03:17;;;;;;;10.30;4.15;;;;;;;9.68;44.64;101798.63;4941972;29;20031;-53
2022/03/18 10:05:50;;;;;;;11.55;4.32;;;;;;;9.82;45.17;101786.38;4942498;28;20454;-54
2022/03/18 10:08:17;;;;;;;14.48;4.90;;;;;;;10.70;43.96;101782.44;4944526;29;20043;-54
2022/03/18 10:10:46;;;;;;;15.15;5.07;;;;;;;10.79;43.40;101795.63;4944509;28;20580;-54
2022/03/18 10:13:12;;;;;;;11.70;4.82;;;;;;;11.37;42.85;101793.19;4939886;29;20035;-53
2022/03/18 10:15:38;;;;;;;15.45;5.10;;;;;;;12.33;42.70;101789.59;4942506;28;20043;-53
2022/03/18 10:18:04;;;;;;;13.25;4.78;;;;;;;11.04;42.16;101786.50;4948655;29;20481;-52
2022/03/18 10:20:38;;;;;;;18.95;4.63;;;;;;;11.29;41.66;101787.91;4907508;28;1148764;-54
2022/03/18 10:23:15;;;;;;;15.82;5.82;;;;;;;10.87;42.88;101783.97;4942074;29;20118;-54
2022/03/18 10:25:42;;;;;;;15.60;4.70;;;;;;;11.65;42.02;101787.97;4948722;28;20074;-54
2022/03/18 10:28:09;;;;;;;15.00;4.70;;;;;;;11.50;41.70;101789.03;4967038;28;20070;-54
2022/03/18 10:30:35;;;;;;;11.32;4.28;;;;;;;11.64;41.57;101790.88;4964346;28;20489;-52
2022/03/18 10:33:01;;;;;;;11.57;3.97;;;;;;;11.35;41.01;101789.03;4965186;28;20185;-52
2022/03/18 10:38:28;;;;;;;14.80;4.80;;;;;;;12.10;40.79;101796.00;4962288;28;20121;-52
2022/03/18 10:40:54;;;;;;;10.68;4.88;;;;;;;12.68;42.24;101796.78;4963717;28;20396;-53
2022/03/18 10:43:20;;;;;;;16.20;4.60;;;;;;;12.97;40.04;101794.09;4960557;28;20525;-53
2022/03/18 10:46:00;;;;;;;19.88;5.03;;;;;;;11.90;39.62;101794.94;4967369;28;20059;-53
2022/03/18 10:48:25;;;;;;;27.77;9.23;;;;;;;11.39;41.07;101785.78;4966574;28;20114;-54
2022/03/18 10:51:06;;;;;;;12.35;4.57;;;;;;;11.07;42.22;101791.50;4962416;28;20655;-54
2022/03/18 10:53:32;;;;;;;;;;;;;;;10.72;41.21;101791.16;4960374;28;20035;-53
2022/03/18 10:56:01;;;;;;;13.45;4.75;;;;;;;10.96;41.05;101790.94;4964865;28;21221;-53
2022/03/18 10:58:31;;;;;;;15.13;4.35;;;;;;;11.61;40.12;101797.44;4963766;28;20038;-52
2022/03/18 11:00:59;;;;;;;;;;;;;;;11.65;39.82;101803.28;4952906;28;20516;-54
2022/03/18 11:03:27;;;;;;;8.77;3.55;;;;;;;11.26;41.27;101811.59;4956092;28;19929;-51
2022/03/18 11:05:54;;;;;;;10.77;3.90;;;;;;;11.59;41.39;101798.66;4961083;28;20129;-52
2022/03/18 11:08:24;;;;;;;14.57;4.35;;;;;;;12.35;39.45;101803.69;4952671;28;20122;-54
2022/03/18 11:14:01;;;;;;;10.93;3.22;;;;;;;12.66;38.81;101795.31;4961425;28;20461;-52
2022/03/18 11:16:29;;;;;;;8.90;3.67;;;;;;;13.22;36.90;101800.69;4953236;28;20051;-54
2022/03/18 11:18:56;;;;;;;9.85;3.03;;;;;;;12.99;37.04;101800.13;4957493;28;20595;-54
2022/03/18 11:21:24;;;;;;;7.78;3.13;;;;;;;12.22;37.01;101794.47;4956329;28;20051;-54
2022/03/18 11:23:50;;;;;;;6.07;2.85;;;;;;;11.34;37.07;101790.88;4940520;29;20031;-54
2022/03/18 11:26:17;;;;;;;10.57;3.17;;;;;;;12.11;37.22;101794.97;4927107;28;20097;-54
2022/03/18 11:28:42;;;;;;;12.45;4.20;;;;;;;11.20;37.76;101789.84;4957835;28;20031;-54
2022/03/18 11:31:09;;;;;;;8.88;3.60;;;;;;;11.56;37.54;101778.38;4949009;28;20047;-54
2022/03/18 11:33:38;;;;;;;12.02;4.03;;;;;;;11.52;36.71;101770.88;4947377;28;20031;-53
2022/03/18 11:36:08;;;;;;;10.85;3.10;;;;;;;12.33;36.96;101776.16;4939894;28;20094;-53
2022/03/18 11:38:56;;;;;;;8.03;3.60;;;;;;;12.08;35.99;101776.53;4947294;28;20031;-54
2022/03/18 11:41:24;;;;;;;10.38;3.53;;;;;;;11.42;35.03;101779.22;4944353;28;20466;-52